Time;durP1;ratioP1;P1;durP2;ratioP2;P2;SDS_P1;SDS_P2;PMS_P1;PMS_P2;Temp;Humidity;BMP_temperature;BMP_pressure;BME280_temperature;BME280_humidity;BME280_pressure;Samples;Min_cycle;Max_cycle;Signal;HPM_P1;HPM_P2
2023/06/21 00:01:16;;;;;;;;;;;22.50;99.90;;;;;;5027292;28;20005;-65
2023/06/21 00:03:48;;;;;;;;;;;22.40;99.90;;;;;;5026795;28;19925;-65
2023/06/21 00:06:20;;;;;;;;;;;22.30;99.90;;;;;;5025329;28;20430;-65
2023/06/21 00:08:52;;;;;;;;;;;22.30;99.90;;;;;;5029846;28;19970;-65
2023/06/21 00:11:24;;;;;;;;;;;22.20;99.90;;;;;;5023383;28;19933;-65
2023/06/21 00:13:56;;;;;;;;;;;22.20;99.90;;;;;;5019625;28;19968;-66
2023/06/21 00:16:27;;;;;;;;;;;22.20;99.90;;;;;;5026700;28;19925;-65
2023/06/21 00:18:59;;;;;;;;;;;22.10;99.90;;;;;;5027334;28;20036;-65
2023/06/21 00:21:31;;;;;;;;;;;22.10;99.90;;;;;;5026941;28;19936;-65
2023/06/21 00:24:02;;;;;;;;;;;22.00;99.90;;;;;;5023178;28;20022;-66
2023/06/21 00:26:34;;;;;;;;;;;22.00;99.90;;;;;;5027688;28;19965;-66
2023/06/21 00:29:09;;;;;;;;;;;21.90;99.90;;;;;;5026988;28;19925;-65
2023/06/21 00:31:41;;;;;;;;;;;21.80;99.90;;;;;;5020826;28;19931;-66
2023/06/21 00:34:12;;;;;;;;;;;21.80;99.90;;;;;;5018382;28;19936;-66
2023/06/21 00:36:44;;;;;;;;;;;21.80;99.90;;;;;;5029329;28;20024;-66
2023/06/21 00:39:16;;;;;;;;;;;21.70;99.90;;;;;;5029032;28;20359;-65
2023/06/21 00:41:48;;;;;;;;;;;21.70;99.90;;;;;;5026600;28;19932;-65
2023/06/21 00:44:20;;;;;;;;;;;21.70;99.90;;;;;;5028341;28;19936;-65
2023/06/21 00:46:52;;;;;;;;;;;21.60;99.90;;;;;;5022200;28;20017;-65
2023/06/21 00:49:23;;;;;;;;;;;21.60;99.90;;;;;;5021295;28;19965;-66
2023/06/21 00:51:59;;;;;;;;;;;21.40;99.90;;;;;;5020384;28;19929;-65
2023/06/21 00:54:34;;;;;;;;;;;21.40;99.90;;;;;;5030575;28;20389;-65
2023/06/21 00:57:06;;;;;;;;;;;21.30;99.90;;;;;;5009409;28;19972;-66
2023/06/21 00:59:38;;;;;;;;;;;21.30;99.90;;;;;;5013624;28;20397;-66
2023/06/21 01:02:10;;;;;;;;;;;21.20;99.90;;;;;;5020431;28;19926;-66
2023/06/21 01:04:36;;;;;;;;;;;21.20;99.90;;;;;;5028657;28;19932;-66
2023/06/21 01:07:45;;;;;;;;;;;21.10;99.90;;;;;;5018246;28;19979;-66
2023/06/21 01:10:32;;;;;;;;;;;21.10;99.90;;;;;;4995385;28;20023;-65
2023/06/21 01:13:12;;;;;;;;;;;21.10;99.90;;;;;;5007329;28;20642;-66
2023/06/21 01:15:47;;;;;;;;;;;21.00;99.90;;;;;;5027955;28;19932;-66
2023/06/21 01:18:20;;;;;;;;;;;20.90;99.90;;;;;;5024840;28;19932;-66
2023/06/21 01:20:54;;;;;;;;;;;20.90;99.90;;;;;;5033699;28;20036;-65
2023/06/21 01:23:45;;;;;;;;;;;20.90;99.90;;;;;;5026669;28;19932;-66
2023/06/21 01:26:20;;;;;;;;;;;20.90;99.90;;;;;;5014108;28;19929;-66
2023/06/21 01:28:55;;;;;;;;;;;20.90;99.90;;;;;;5026536;28;19926;-65
2023/06/21 01:31:23;;;;;;;;;;;20.90;99.90;;;;;;5015006;28;19966;-65
2023/06/21 01:33:55;;;;;;;;;;;20.80;99.90;;;;;;5025212;28;19925;-65
2023/06/21 01:36:27;;;;;;;;;;;20.80;99.90;;;;;;5025518;28;19925;-65
2023/06/21 01:38:59;;;;;;;;;;;20.80;99.90;;;;;;5025661;28;19929;-66
2023/06/21 01:41:31;;;;;;;;;;;20.70;99.90;;;;;;5021819;28;19953;-66
2023/06/21 01:44:04;;;;;;;;;;;20.70;99.90;;;;;;5025773;28;19936;-66
2023/06/21 01:46:37;;;;;;;;;;;20.60;99.90;;;;;;5021110;28;19925;-66
2023/06/21 01:49:09;;;;;;;;;;;20.60;99.90;;;;;;5026931;28;19926;-65
2023/06/21 01:51:41;;;;;;;;;;;20.60;99.90;;;;;;5027699;28;20398;-65
2023/06/21 01:54:15;;;;;;;;;;;20.60;99.90;;;;;;5011184;28;19979;-66
2023/06/21 01:56:45;;;;;;;;;;;20.60;99.90;;;;;;5021451;28;19933;-66
2023/06/21 01:59:18;;;;;;;;;;;20.60;99.90;;;;;;5010718;28;19933;-66
2023/06/21 02:01:50;;;;;;;;;;;20.60;99.90;;;;;;5026018;28;20381;-65
2023/06/21 02:04:22;;;;;;;;;;;20.40;99.90;;;;;;5023674;28;19930;-65
2023/06/21 02:06:50;;;;;;;;;;;20.30;99.90;;;;;;5027314;28;19929;-65
2023/06/21 02:09:19;;;;;;;;;;;20.20;99.90;;;;;;5016629;28;19979;-65
2023/06/21 02:11:52;;;;;;;;;;;20.10;99.90;;;;;;5029397;28;19926;-65
2023/06/21 02:14:19;;;;;;;;;;;20.00;99.90;;;;;;5011898;28;19926;-66
2023/06/21 02:16:51;;;;;;;;;;;20.00;99.90;;;;;;5014567;28;19992;-66
2023/06/21 02:19:22;;;;;;;;;;;20.10;99.90;;;;;;5028438;28;19925;-65
2023/06/21 02:21:54;;;;;;;;;;;20.20;99.90;;;;;;5024273;28;19951;-66
2023/06/21 02:24:26;;;;;;;;;;;20.30;99.90;;;;;;5011973;28;19929;-66
2023/06/21 02:26:58;;;;;;;;;;;20.30;99.90;;;;;;5024512;28;19933;-66
2023/06/21 02:29:24;;;;;;;;;;;20.40;99.90;;;;;;5029223;28;19925;-66
2023/06/21 02:31:51;;;;;;;;;;;20.30;99.90;;;;;;5026821;28;19925;-66
2023/06/21 02:34:24;;;;;;;;;;;20.40;99.90;;;;;;5022651;28;20316;-66
2023/06/21 02:36:53;;;;;;;;;;;20.40;99.90;;;;;;5026578;28;19976;-66
2023/06/21 02:39:20;;;;;;;;;;;20.30;99.90;;;;;;5026544;28;19968;-66
2023/06/21 02:41:53;;;;;;;;;;;20.30;99.90;;;;;;5028445;28;19925;-65
2023/06/21 02:44:20;;;;;;;;;;;20.20;99.90;;;;;;5026282;28;19932;-66
2023/06/21 02:46:52;;;;;;;;;;;20.20;99.90;;;;;;5028743;28;20017;-66
2023/06/21 02:49:23;;;;;;;;;;;20.10;99.90;;;;;;5022617;28;19933;-66
2023/06/21 02:51:50;;;;;;;;;;;20.10;99.90;;;;;;5028790;28;19929;-66
2023/06/21 02:54:22;;;;;;;;;;;20.00;99.90;;;;;;5022794;28;19925;-65
2023/06/21 02:56:53;;;;;;;;;;;20.10;99.90;;;;;;5021934;28;19929;-65
2023/06/21 02:59:20;;;;;;;;;;;20.00;99.90;;;;;;5028815;28;19935;-66
2023/06/21 03:01:52;;;;;;;;;;;20.00;99.90;;;;;;5025597;28;19925;-65
2023/06/21 03:04:24;;;;;;;;;;;20.00;99.90;;;;;;5020663;28;19933;-65
2023/06/21 03:06:51;;;;;;;;;;;19.90;99.90;;;;;;5031575;28;19932;-65
2023/06/21 03:09:23;;;;;;;;;;;19.90;99.90;;;;;;5024978;28;19932;-66
2023/06/21 03:11:56;;;;;;;;;;;19.80;99.90;;;;;;5025316;28;20397;-65
2023/06/21 03:14:29;;;;;;;;;;;19.80;99.90;;;;;;5014764;28;19933;-65
2023/06/21 03:17:02;;;;;;;;;;;19.80;99.90;;;;;;5024649;28;19929;-65
2023/06/21 03:19:34;;;;;;;;;;;19.80;99.90;;;;;;5010733;28;19937;-65
2023/06/21 03:22:08;;;;;;;;;;;19.80;99.90;;;;;;5024512;28;19943;-65
2023/06/21 03:24:39;;;;;;;;;;;19.80;99.90;;;;;;5023081;28;20650;-65
2023/06/21 03:27:11;;;;;;;;;;;19.70;99.90;;;;;;5035133;28;20362;-65
2023/06/21 03:29:38;;;;;;;;;;;19.70;99.90;;;;;;5022515;28;19951;-65
2023/06/21 03:32:05;;;;;;;;;;;19.70;99.90;;;;;;5017965;28;19926;-66
2023/06/21 03:34:37;;;;;;;;;;;19.60;99.90;;;;;;5031086;28;19929;-65
2023/06/21 03:37:04;;;;;;;;;;;19.50;99.90;;;;;;5023218;28;19940;-65
2023/06/21 03:39:32;;;;;;;;;;;19.50;99.90;;;;;;5026201;28;20009;-66
2023/06/21 03:42:04;;;;;;;;;;;19.40;99.90;;;;;;5021824;28;20398;-65
2023/06/21 03:44:36;;;;;;;;;;;19.40;99.90;;;;;;5029446;28;19929;-66
2023/06/21 03:47:10;;;;;;;;;;;19.40;99.90;;;;;;5024533;28;19983;-65
2023/06/21 03:49:42;;;;;;;;;;;19.40;99.90;;;;;;5026775;28;20019;-66
2023/06/21 03:52:18;;;;;;;;;;;19.40;99.90;;;;;;5022117;28;20024;-66
2023/06/21 03:54:51;;;;;;;;;;;19.40;99.90;;;;;;5030023;28;19999;-66
2023/06/21 03:57:23;;;;;;;;;;;19.30;99.90;;;;;;5020458;28;19926;-65
2023/06/21 03:59:55;;;;;;;;;;;19.40;99.90;;;;;;5029055;28;19968;-66
2023/06/21 04:02:29;;;;;;;;;;;19.40;99.90;;;;;;5028592;28;20345;-65
2023/06/21 04:04:55;;;;;;;;;;;19.40;99.90;;;;;;5028749;28;19979;-66
2023/06/21 04:07:31;;;;;;;;;;;19.50;99.90;;;;;;5023276;28;20301;-66
2023/06/21 04:09:58;;;;;;;;;;;19.50;99.90;;;;;;5029882;28;19929;-66
2023/06/21 04:12:31;;;;;;;;;;;19.50;99.90;;;;;;5029961;28;19924;-66
2023/06/21 04:15:01;;;;;;;;;;;19.60;99.90;;;;;;5028874;28;19929;-65
2023/06/21 04:17:36;;;;;;;;;;;19.60;99.90;;;;;;5024198;28;19929;-65
2023/06/21 04:20:10;;;;;;;;;;;19.70;99.90;;;;;;5025010;28;19936;-65
2023/06/21 04:22:42;;;;;;;;;;;19.60;99.90;;;;;;5029452;28;20048;-65
2023/06/21 04:25:14;;;;;;;;;;;19.50;99.90;;;;;;5018507;28;20321;-65
2023/06/21 04:27:46;;;;;;;;;;;19.60;99.90;;;;;;5016303;28;19929;-65
2023/06/21 04:30:18;;;;;;;;;;;19.60;99.90;;;;;;5026564;28;20451;-65
2023/06/21 04:32:51;;;;;;;;;;;19.70;99.90;;;;;;5028760;28;19925;-65
2023/06/21 04:35:18;;;;;;;;;;;19.80;99.90;;;;;;5023820;28;19936;-66
2023/06/21 04:37:46;;;;;;;;;;;19.90;99.90;;;;;;5024958;28;19925;-65
2023/06/21 04:40:18;;;;;;;;;;;19.90;99.90;;;;;;5028410;28;20472;-65
2023/06/21 04:42:57;;;;;;;;;;;19.90;99.90;;;;;;5023876;28;19936;-67
2023/06/21 04:45:30;;;;;;;;;;;19.90;99.90;;;;;;5018785;28;20432;-68
2023/06/21 04:48:03;;;;;;;;;;;19.90;99.90;;;;;;5021867;28;19930;-70
2023/06/21 04:50:35;;;;;;;;;;;20.00;99.90;;;;;;5020332;28;19929;-68
2023/06/21 04:53:06;;;;;;;;;;;19.90;99.90;;;;;;5023949;28;19925;-65
2023/06/21 04:55:42;;;;;;;;;;;19.80;99.90;;;;;;5026645;28;19936;-66
2023/06/21 04:58:15;;;;;;;;;;;19.80;99.90;;;;;;5024154;28;20398;-68
2023/06/21 05:00:47;;;;;;;;;;;19.80;99.90;;;;;;5026214;28;19925;-65
2023/06/21 05:03:19;;;;;;;;;;;19.70;99.90;;;;;;5020304;28;20028;-68
2023/06/21 05:05:51;;;;;;;;;;;19.70;99.90;;;;;;5027111;28;20443;-67
2023/06/21 05:08:22;;;;;;;;;;;19.70;99.90;;;;;;5015524;28;19929;-64
2023/06/21 05:10:54;;;;;;;;;;;19.70;99.90;;;;;;5026503;28;20012;-65
2023/06/21 05:13:26;;;;;;;;;;;19.80;99.90;;;;;;5027379;28;19952;-68
2023/06/21 05:15:58;;;;;;;;;;;19.90;99.90;;;;;;5015658;28;19971;-66
2023/06/21 05:18:29;;;;;;;;;;;20.00;99.90;;;;;;5026766;28;19932;-66
2023/06/21 05:20:56;;;;;;;;;;;20.10;99.90;;;;;;5022922;28;19929;-65
2023/06/21 05:23:28;;;;;;;;;;;20.10;99.90;;;;;;5024349;28;19931;-67
2023/06/21 05:26:00;;;;;;;;;;;20.20;99.90;;;;;;5022842;28;19929;-66
2023/06/21 05:28:26;;;;;;;;;;;20.20;99.90;;;;;;5026713;28;20028;-66
2023/06/21 05:30:58;;;;;;;;;;;20.20;99.90;;;;;;5033959;28;20023;-66
2023/06/21 05:33:30;;;;;;;;;;;20.20;99.90;;;;;;5022977;28;20329;-65
2023/06/21 05:36:02;;;;;;;;;;;20.30;99.90;;;;;;5022744;28;19929;-66
2023/06/21 05:38:33;;;;;;;;;;;20.40;99.90;;;;;;5023826;28;20017;-66
2023/06/21 05:41:05;;;;;;;;;;;20.50;99.90;;;;;;5024591;28;20609;-65
2023/06/21 05:43:37;;;;;;;;;;;20.60;99.90;;;;;;5028159;28;20296;-66
2023/06/21 05:46:04;;;;;;;;;;;20.70;99.90;;;;;;5029093;28;20025;-66
2023/06/21 05:48:36;;;;;;;;;;;20.70;99.90;;;;;;5025910;28;19929;-66
2023/06/21 05:51:08;;;;;;;;;;;20.80;99.90;;;;;;5027744;28;20300;-66
2023/06/21 05:53:40;;;;;;;;;;;20.90;99.90;;;;;;5026955;28;19925;-66
2023/06/21 05:56:12;;;;;;;;;;;20.80;99.90;;;;;;5027467;28;19929;-65
2023/06/21 05:58:39;;;;;;;;;;;20.80;99.90;;;;;;5025903;28;19936;-66
2023/06/21 06:01:05;;;;;;;;;;;20.80;99.90;;;;;;5023517;28;19929;-66
2023/06/21 06:03:38;;;;;;;;;;;20.80;99.90;;;;;;5021753;28;20304;-66
2023/06/21 06:06:13;;;;;;;;;;;20.80;99.90;;;;;;5028260;28;19925;-65
2023/06/21 06:08:39;;;;;;;;;;;20.80;99.90;;;;;;5026413;28;19925;-66
2023/06/21 06:11:11;;;;;;;;;;;20.90;99.90;;;;;;5025741;28;19932;-66
2023/06/21 06:13:43;;;;;;;;;;;20.90;99.90;;;;;;5025060;28;20020;-66
2023/06/21 06:16:14;;;;;;;;;;;21.00;99.90;;;;;;5025333;28;19940;-66
2023/06/21 06:18:46;;;;;;;;;;;21.10;99.90;;;;;;5010502;28;19925;-66
2023/06/21 06:21:14;;;;;;;;;;;21.20;99.90;;;;;;5028676;28;19967;-65
2023/06/21 06:23:46;;;;;;;;;;;21.30;99.90;;;;;;5024611;28;19931;-65
2023/06/21 06:26:12;;;;;;;;;;;21.40;99.90;;;;;;5020071;28;19929;-68
2023/06/21 06:28:40;;;;;;;;;;;21.40;99.90;;;;;;5024507;28;19926;-67
2023/06/21 06:31:11;;;;;;;;;;;21.50;99.90;;;;;;5025853;28;20020;-65
2023/06/21 06:33:43;;;;;;;;;;;21.50;99.90;;;;;;5029394;28;19933;-72
2023/06/21 06:36:15;;;;;;;;;;;21.60;99.90;;;;;;5026327;28;20405;-70
2023/06/21 06:38:47;;;;;;;;;;;21.70;99.90;;;;;;5025778;28;19929;-66
2023/06/21 06:41:19;;;;;;;;;;;21.80;99.90;;;;;;5030028;28;19925;-68
2023/06/21 06:43:52;;;;;;;;;;;22.00;99.90;;;;;;5024916;28;20015;-66
2023/06/21 06:46:24;;;;;;;;;;;22.00;99.90;;;;;;5018644;28;20022;-65
2023/06/21 06:48:56;;;;;;;;;;;22.10;99.90;;;;;;5025845;28;19956;-66
2023/06/21 06:51:28;;;;;;;;;;;22.10;99.90;;;;;;5017516;28;19965;-66
2023/06/21 06:53:59;;;;;;;;;;;22.10;99.90;;;;;;5020272;28;19940;-67
2023/06/21 06:56:31;;;;;;;;;;;22.20;99.90;;;;;;5018098;28;19925;-66
2023/06/21 06:59:03;;;;;;;;;;;22.30;99.90;;;;;;5027101;28;19987;-66
2023/06/21 07:01:30;;;;;;;;;;;22.40;99.90;;;;;;5019662;28;19925;-66
2023/06/21 07:04:02;;;;;;;;;;;22.50;99.90;;;;;;5023389;28;19929;-66
2023/06/21 07:06:33;;;;;;;;;;;22.60;99.90;;;;;;5022240;28;19925;-65
2023/06/21 07:09:06;;;;;;;;;;;22.70;99.90;;;;;;5023882;28;20023;-66
2023/06/21 07:11:38;;;;;;;;;;;22.70;99.90;;;;;;5019653;28;20325;-67
2023/06/21 07:14:10;;;;;;;;;;;22.80;99.90;;;;;;5016314;28;19932;-65
2023/06/21 07:16:43;;;;;;;;;;;22.90;99.90;;;;;;5013883;28;19930;-65
2023/06/21 07:19:15;;;;;;;;;;;22.90;99.90;;;;;;5016912;28;20460;-66
2023/06/21 07:21:47;;;;;;;;;;;23.00;99.90;;;;;;5020108;28;19936;-66
2023/06/21 07:24:14;;;;;;;;;;;23.00;99.90;;;;;;5018355;28;20019;-66
2023/06/21 07:26:46;;;;;;;;;;;23.10;99.90;;;;;;5022387;28;19937;-66
2023/06/21 07:29:18;;;;;;;;;;;23.20;99.90;;;;;;5022887;28;19930;-65
2023/06/21 07:31:50;;;;;;;;;;;23.20;99.90;;;;;;5021764;28;19930;-65
2023/06/21 07:34:21;;;;;;;;;;;23.20;99.90;;;;;;5021253;28;19926;-66
2023/06/21 07:36:53;;;;;;;;;;;23.30;99.90;;;;;;5027728;28;19929;-66
2023/06/21 07:39:25;;;;;;;;;;;23.40;99.90;;;;;;5026767;28;19929;-66
2023/06/21 07:41:53;;;;;;;;;;;23.50;99.90;;;;;;5016297;28;20020;-65
2023/06/21 07:44:25;;;;;;;;;;;23.60;99.90;;;;;;5028331;28;19948;-66
2023/06/21 07:46:57;;;;;;;;;;;23.70;99.90;;;;;;5020499;28;19929;-65
2023/06/21 07:49:23;;;;;;;;;;;23.90;99.90;;;;;;5027342;28;19931;-65
2023/06/21 07:51:55;;;;;;;;;;;24.00;99.90;;;;;;5028931;28;19929;-66
2023/06/21 07:54:27;;;;;;;;;;;24.10;99.90;;;;;;5024448;28;20020;-65
2023/06/21 07:56:59;;;;;;;;;;;24.20;99.90;;;;;;5030236;28;19925;-66
2023/06/21 07:59:26;;;;;;;;;;;24.30;99.90;;;;;;5020829;28;19936;-66
2023/06/21 08:01:58;;;;;;;;;;;24.40;99.90;;;;;;5020085;28;19931;-65
2023/06/21 08:04:24;;;;;;;;;;;24.50;99.90;;;;;;5030775;28;20024;-66
2023/06/21 08:06:51;;;;;;;;;;;24.50;99.90;;;;;;5017261;28;19926;-67
2023/06/21 08:09:23;;;;;;;;;;;24.60;99.90;;;;;;5021073;28;20415;-67
2023/06/21 08:11:55;;;;;;;;;;;24.80;99.90;;;;;;5029725;28;19925;-66
2023/06/21 08:14:27;;;;;;;;;;;24.90;99.90;;;;;;5027792;28;19952;-66
2023/06/21 08:16:58;;;;;;;;;;;25.10;99.90;;;;;;5027670;28;19925;-66
2023/06/21 08:19:30;;;;;;;;;;;25.20;99.90;;;;;;5024892;28;20380;-66
2023/06/21 08:22:02;;;;;;;;;;;25.40;99.90;;;;;;5023503;28;20389;-66
2023/06/21 08:24:34;;;;;;;;;;;25.50;99.90;;;;;;5019277;28;19925;-66
2023/06/21 08:27:06;;;;;;;;;;;25.60;99.90;;;;;;5023215;28;19925;-66
2023/06/21 08:29:38;;;;;;;;;;;25.70;99.90;;;;;;5018498;28;19933;-66
2023/06/21 08:32:10;;;;;;;;;;;25.80;99.90;;;;;;5017824;28;20023;-66
2023/06/21 08:34:42;;;;;;;;;;;26.00;99.90;;;;;;5030723;28;20419;-66
2023/06/21 08:37:13;;;;;;;;;;;26.10;99.90;;;;;;5027952;28;19933;-66
2023/06/21 08:39:45;;;;;;;;;;;26.20;99.90;;;;;;5025554;28;20635;-66
2023/06/21 08:42:17;;;;;;;;;;;26.30;99.90;;;;;;5026959;28;19925;-66
2023/06/21 08:44:50;;;;;;;;;;;26.40;99.90;;;;;;5042444;28;19931;-68
2023/06/21 08:47:22;;;;;;;;;;;26.50;99.90;;;;;;5029011;28;19925;-67
2023/06/21 08:49:57;;;;;;;;;;;26.60;99.90;;;;;;5019764;28;20394;-66
2023/06/21 08:52:29;;;;;;;;;;;26.60;99.90;;;;;;5027762;28;19933;-66
2023/06/21 08:55:03;;;;;;;;;;;26.70;99.90;;;;;;5024396;28;19951;-66
2023/06/21 08:57:54;;;;;;;;;;;26.90;99.90;;;;;;5025688;28;19931;-67
2023/06/21 09:00:31;;;;;;;;;;;27.00;99.90;;;;;;5028686;28;20402;-66
2023/06/21 09:03:08;;;;;;;;;;;27.10;99.90;;;;;;5028889;28;19933;-67
2023/06/21 09:05:52;;;;;;;;;;;27.30;99.90;;;;;;5028120;28;19925;-66
2023/06/21 09:08:24;;;;;;;;;;;27.50;99.90;;;;;;5028450;28;19935;-67
2023/06/21 09:10:56;;;;;;;;;;;27.60;99.90;;;;;;5030687;28;19933;-66
2023/06/21 09:13:29;;;;;;;;;;;27.70;99.90;;;;;;5028599;28;19929;-68
2023/06/21 09:16:01;;;;;;;;;;;27.80;99.90;;;;;;5030485;28;20464;-66
2023/06/21 09:18:38;;;;;;;;;;;27.70;99.90;;;;;;5023546;28;20401;-67
2023/06/21 09:21:06;;;;;;;;;;;27.50;99.90;;;;;;5024877;28;19929;-67
2023/06/21 09:23:32;;;;;;;;;;;27.20;99.90;;;;;;5027646;28;19930;-68
2023/06/21 09:26:04;;;;;;;;;;;27.10;99.90;;;;;;5024705;28;19925;-66
2023/06/21 09:28:36;;;;;;;;;;;26.80;99.90;;;;;;5027064;28;19925;-66
2023/06/21 09:31:07;;;;;;;;;;;26.60;99.90;;;;;;5022843;28;20326;-66
2023/06/21 09:33:41;;;;;;;;;;;26.30;99.90;;;;;;5027335;28;19925;-67
2023/06/21 09:36:14;;;;;;;;;;;26.00;99.90;;;;;;5024940;28;19925;-67
2023/06/21 09:38:41;;;;;;;;;;;24.30;99.90;;;;;;5026207;28;19933;-66
2023/06/21 09:41:13;;;;;;;;;;;22.20;99.90;;;;;;5027595;28;19925;-65
2023/06/21 09:43:45;;;;;;;;;;;20.90;99.90;;;;;;5020527;28;19929;-66
2023/06/21 09:46:17;;;;;;;;;;;20.00;99.90;;;;;;5028087;28;19925;-66
2023/06/21 09:48:44;;;;;;;;;;;19.70;99.90;;;;;;5021838;28;20807;-66
2023/06/21 09:51:18;;;;;;;;;;;19.60;99.90;;;;;;5029943;28;19933;-67
2023/06/21 09:53:50;;;;;;;;;;;19.70;99.90;;;;;;5025467;28;19929;-66
2023/06/21 09:56:22;;;;;;;;;;;19.60;99.90;;;;;;5025073;28;19964;-66
2023/06/21 09:58:50;;;;;;;;;;;19.50;99.90;;;;;;5029862;28;19935;-67
2023/06/21 10:01:23;;;;;;;;;;;19.50;99.90;;;;;;5026737;28;20023;-66
2023/06/21 10:03:55;;;;;;;;;;;19.60;99.90;;;;;;5023365;28;19929;-66
2023/06/21 10:06:28;;;;;;;;;;;19.60;99.90;;;;;;5022474;28;19925;-66
2023/06/21 10:09:00;;;;;;;;;;;19.60;99.90;;;;;;5021941;28;19937;-66
2023/06/21 10:11:27;;;;;;;;;;;19.60;99.90;;;;;;5020936;28;19925;-67
2023/06/21 10:13:59;;;;;;;;;;;19.60;99.90;;;;;;5029370;28;19926;-66
2023/06/21 10:16:32;;;;;;;;;;;19.60;99.90;;;;;;5019668;28;19940;-66
2023/06/21 10:19:00;;;;;;;;;;;19.50;99.90;;;;;;5026536;28;19979;-67
2023/06/21 10:21:32;;;;;;;;;;;19.60;99.90;;;;;;5027503;28;19935;-67
2023/06/21 10:24:05;;;;;;;;;;;19.60;99.90;;;;;;5022443;28;19925;-66
2023/06/21 10:26:37;;;;;;;;;;;19.70;99.90;;;;;;5024257;28;20308;-66
2023/06/21 10:29:10;;;;;;;;;;;19.70;99.90;;;;;;5023096;28;19932;-66
2023/06/21 10:31:38;;;;;;;;;;;19.70;99.90;;;;;;5018204;28;19930;-66
2023/06/21 10:34:11;;;;;;;;;;;19.70;99.90;;;;;;5015943;28;20694;-66
2023/06/21 10:36:40;;;;;;;;;;;19.80;99.90;;;;;;5027106;28;20016;-66
2023/06/21 10:39:13;;;;;;;;;;;19.90;99.90;;;;;;5027165;28;19925;-66
2023/06/21 10:41:45;;;;;;;;;;;19.90;99.90;;;;;;5020050;28;19935;-66
2023/06/21 10:44:17;;;;;;;;;;;19.90;99.90;;;;;;5023541;28;19929;-67
2023/06/21 10:46:50;;;;;;;;;;;20.00;99.90;;;;;;5021074;28;19929;-67
2023/06/21 10:49:17;;;;;;;;;;;20.00;99.90;;;;;;5023925;28;19936;-65
2023/06/21 10:51:45;;;;;;;;;;;20.00;99.90;;;;;;5020364;28;20027;-66
2023/06/21 10:54:12;;;;;;;;;;;20.00;99.90;;;;;;5025598;28;19971;-65
2023/06/21 10:56:39;;;;;;;;;;;19.90;99.90;;;;;;5019060;28;19968;-65
2023/06/21 10:59:11;;;;;;;;;;;19.90;99.90;;;;;;5020178;28;19932;-66
2023/06/21 11:01:43;;;;;;;;;;;19.90;99.90;;;;;;5017071;28;19956;-65
2023/06/21 11:04:15;;;;;;;;;;;20.00;99.90;;;;;;5018496;28;19960;-65
2023/06/21 11:06:43;;;;;;;;;;;20.10;99.90;;;;;;5017688;28;19973;-65
2023/06/21 11:09:16;;;;;;;;;;;20.30;99.90;;;;;;5021101;28;20398;-66
2023/06/21 11:11:52;;;;;;;;;;;20.50;99.90;;;;;;5018114;28;20003;-66
2023/06/21 11:14:34;;;;;;;;;;;20.60;99.90;;;;;;5021515;28;19926;-65
2023/06/21 11:17:12;;;;;;;;;;;20.70;99.90;;;;;;5019970;28;19930;-65
2023/06/21 11:19:38;;;;;;;;;;;21.00;99.90;;;;;;5019627;28;19947;-65
2023/06/21 11:22:15;;;;;;;;;;;21.10;99.90;;;;;;5001126;28;19948;-65
2023/06/21 11:24:58;;;;;;;;;;;21.30;99.90;;;;;;5022895;28;19925;-65
2023/06/21 11:27:30;;;;;;;;;;;21.40;99.90;;;;;;5029125;28;20378;-65
2023/06/21 11:29:59;;;;;;;;;;;21.60;99.90;;;;;;5030043;28;19936;-65
2023/06/21 11:32:30;;;;;;;;;;;21.70;99.90;;;;;;5022423;28;20397;-65
2023/06/21 11:35:07;;;;;;;;;;;21.60;99.90;;;;;;5026803;28;19925;-65
2023/06/21 11:37:41;;;;;;;;;;;21.60;99.90;;;;;;5022444;28;19936;-65
2023/06/21 11:40:26;;;;;;;;;;;21.70;99.90;;;;;;5021901;28;19973;-65
2023/06/21 11:43:04;;;;;;;;;;;22.00;99.90;;;;;;5028998;28;20401;-65
2023/06/21 11:45:35;;;;;;;;;;;22.10;99.90;;;;;;5024094;28;20035;-65
2023/06/21 11:48:12;;;;;;;;;;;22.30;99.90;;;;;;5018950;28;19953;-65
2023/06/21 11:50:48;;;;;;;;;;;22.20;99.90;;;;;;5031145;28;19944;-65
2023/06/21 11:53:26;;;;;;;;;;;22.20;99.90;;;;;;5031367;28;20308;-65
2023/06/21 11:55:59;;;;;;;;;;;22.20;99.90;;;;;;5030977;28;19940;-65
2023/06/21 11:58:31;;;;;;;;;;;22.30;99.90;;;;;;5031406;28;19931;-65
2023/06/21 12:01:03;;;;;;;;;;;22.40;99.90;;;;;;5031316;28;19979;-65
2023/06/21 12:03:30;;;;;;;;;;;22.50;99.90;;;;;;5028543;28;19925;-64
2023/06/21 12:06:02;;;;;;;;;;;22.60;99.90;;;;;;5024337;28;19932;-65
2023/06/21 12:08:34;;;;;;;;;;;22.80;99.90;;;;;;5028329;28;20461;-65
2023/06/21 12:11:07;;;;;;;;;;;23.10;99.90;;;;;;5017417;28;19939;-65
2023/06/21 12:13:35;;;;;;;;;;;23.30;99.90;;;;;;5029175;28;19925;-65
2023/06/21 12:16:07;;;;;;;;;;;23.50;99.90;;;;;;5026959;28;20278;-65
2023/06/21 12:18:39;;;;;;;;;;;23.50;99.90;;;;;;5026642;28;19932;-65
2023/06/21 12:21:11;;;;;;;;;;;23.50;99.90;;;;;;5027056;28;19948;-65
2023/06/21 12:23:38;;;;;;;;;;;23.60;99.90;;;;;;5028646;28;19980;-65
2023/06/21 12:26:12;;;;;;;;;;;23.70;99.90;;;;;;5027124;28;19929;-65
2023/06/21 12:28:46;;;;;;;;;;;23.80;99.90;;;;;;5028682;28;19929;-65
2023/06/21 12:31:18;;;;;;;;;;;23.90;99.90;;;;;;5030059;28;19925;-65
2023/06/21 12:34:02;;;;;;;;;;;23.90;99.90;;;;;;5029761;28;20301;-65
2023/06/21 12:36:35;;;;;;;;;;;24.00;99.90;;;;;;5029844;28;19933;-65
2023/06/21 12:39:04;;;;;;;;;;;24.10;99.90;;;;;;5029750;28;19935;-65
2023/06/21 12:41:39;;;;;;;;;;;24.00;99.90;;;;;;5028150;28;19960;-65
2023/06/21 12:44:20;;;;;;;;;;;24.20;99.90;;;;;;5028250;28;19933;-65
2023/06/21 12:46:53;;;;;;;;;;;24.40;99.90;;;;;;5029590;28;20014;-65
2023/06/21 12:49:26;;;;;;;;;;;24.50;99.90;;;;;;5027794;28;20028;-65
2023/06/21 12:52:01;;;;;;;;;;;24.60;99.90;;;;;;5029737;28;19928;-65
2023/06/21 12:54:27;;;;;;;;;;;24.80;99.90;;;;;;5030487;28;19929;-65
2023/06/21 12:57:00;;;;;;;;;;;24.80;99.90;;;;;;5028895;28;19925;-65
2023/06/21 12:59:31;;;;;;;;;;;24.90;99.90;;;;;;5030602;28;20002;-65
2023/06/21 13:01:58;;;;;;;;;;;25.00;99.90;;;;;;5026915;28;20011;-65
2023/06/21 13:04:30;;;;;;;;;;;25.10;99.90;;;;;;5028867;28;19925;-65
2023/06/21 13:07:02;;;;;;;;;;;25.10;99.90;;;;;;5050357;28;19933;-65
2023/06/21 13:09:34;;;;;;;;;;;25.20;99.90;;;;;;5027407;28;19979;-65
2023/06/21 13:12:06;;;;;;;;;;;25.10;99.90;;;;;;5027638;28;19952;-65
2023/06/21 13:14:33;;;;;;;;;;;25.20;99.90;;;;;;5028468;28;19993;-65
2023/06/21 13:17:05;;;;;;;;;;;25.30;99.90;;;;;;5026322;28;20043;-66
2023/06/21 13:19:38;;;;;;;;;;;25.40;99.90;;;;;;5029445;28;19995;-65
2023/06/21 13:22:10;;;;;;;;;;;25.60;99.90;;;;;;5026872;28;19929;-65
2023/06/21 13:24:37;;;;;;;;;;;25.60;99.90;;;;;;5024840;28;19936;-65
2023/06/21 13:27:08;;;;;;;;;;;25.70;99.90;;;;;;5021029;28;19955;-65
2023/06/21 13:29:40;;;;;;;;;;;25.70;99.90;;;;;;5020561;28;19925;-65
2023/06/21 13:32:12;;;;;;;;;;;25.70;99.90;;;;;;5029277;28;19925;-65
2023/06/21 13:34:43;;;;;;;;;;;25.70;99.90;;;;;;5027032;28;19933;-65
2023/06/21 13:37:15;;;;;;;;;;;26.00;99.90;;;;;;5021618;28;19929;-65
2023/06/21 13:39:47;;;;;;;;;;;26.20;99.90;;;;;;5027037;28;19929;-65
2023/06/21 13:42:19;;;;;;;;;;;26.40;99.90;;;;;;5019294;28;20389;-65
2023/06/21 13:44:45;;;;;;;;;;;26.50;99.90;;;;;;5022220;28;19937;-65
2023/06/21 13:47:17;;;;;;;;;;;26.40;99.90;;;;;;5019784;28;20309;-65
2023/06/21 13:49:49;;;;;;;;;;;26.50;99.90;;;;;;5024066;28;19933;-65
2023/06/21 13:52:24;;;;;;;;;;;26.60;99.90;;;;;;5025262;28;20290;-65
2023/06/21 13:54:55;;;;;;;;;;;26.70;99.90;;;;;;5021708;28;19925;-65
2023/06/21 13:57:27;;;;;;;;;;;26.90;99.90;;;;;;5019936;28;20020;-65
2023/06/21 13:59:54;;;;;;;;;;;27.00;99.90;;;;;;5019028;28;20386;-65
2023/06/21 14:02:23;;;;;;;;;;;27.20;99.90;;;;;;5020737;28;20135;-66
2023/06/21 14:04:50;;;;;;;;;;;27.50;99.90;;;;;;5018986;28;20464;-65
2023/06/21 14:07:21;;;;;;;;;;;27.70;99.90;;;;;;5025817;28;20014;-65
2023/06/21 14:09:53;;;;;;;;;;;28.00;99.90;;;;;;5023460;28;19925;-65
2023/06/21 14:12:24;;;;;;;;;;;28.20;99.90;;;;;;5028835;28;20784;-65
2023/06/21 14:14:57;;;;;;;;;;;28.20;99.90;;;;;;5022389;28;19925;-65
2023/06/21 14:17:28;;;;;;;;;;;28.30;99.90;;;;;;5020922;28;19929;-65
2023/06/21 14:20:01;;;;;;;;;;;28.40;99.90;;;;;;5015524;28;19933;-65
2023/06/21 14:22:33;;;;;;;;;;;28.40;99.90;;;;;;5018259;28;20461;-65
2023/06/21 14:25:06;;;;;;;;;;;28.40;99.90;;;;;;5025522;28;20052;-66
2023/06/21 14:27:38;;;;;;;;;;;28.30;99.90;;;;;;5028566;28;19932;-65
2023/06/21 14:30:05;;;;;;;;;;;28.30;99.90;;;;;;5028241;28;20397;-65
2023/06/21 14:32:32;;;;;;;;;;;28.20;99.90;;;;;;5020888;28;19925;-65
2023/06/21 14:35:03;;;;;;;;;;;28.20;99.90;;;;;;5027437;28;19929;-66
2023/06/21 14:37:35;;;;;;;;;;;28.00;99.90;;;;;;5023556;28;20032;-65
2023/06/21 14:40:07;;;;;;;;;;;27.90;99.90;;;;;;5025337;28;19929;-65
2023/06/21 14:42:39;;;;;;;;;;;28.00;99.90;;;;;;5021146;28;19930;-65